sensor_id;sensor_type;location;lat;lon;timestamp;temperature;humidity
578;DHT22;275;48.492;9.214;2024-02-15T00:00:01;14.10;31.40
578;DHT22;275;48.492;9.214;2024-02-15T00:02:29;14.10;31.40
578;DHT22;275;48.492;9.214;2024-02-15T00:04:56;13.90;32.00
578;DHT22;275;48.492;9.214;2024-02-15T00:07:23;14.10;31.70
578;DHT22;275;48.492;9.214;2024-02-15T00:09:50;13.90;31.70
578;DHT22;275;48.492;9.214;2024-02-15T00:12:18;14.10;31.50
578;DHT22;275;48.492;9.214;2024-02-15T00:14:45;14.30;30.90
578;DHT22;275;48.492;9.214;2024-02-15T00:17:12;14.40;30.90
578;DHT22;275;48.492;9.214;2024-02-15T00:19:39;14.30;31.50
578;DHT22;275;48.492;9.214;2024-02-15T00:22:07;14.60;30.30
578;DHT22;275;48.492;9.214;2024-02-15T00:24:36;14.60;30.10
578;DHT22;275;48.492;9.214;2024-02-15T00:27:03;14.20;31.00
578;DHT22;275;48.492;9.214;2024-02-15T00:29:31;13.90;31.90
578;DHT22;275;48.492;9.214;2024-02-15T00:31:59;13.70;32.60
578;DHT22;275;48.492;9.214;2024-02-15T00:34:26;13.50;32.90
578;DHT22;275;48.492;9.214;2024-02-15T00:36:53;13.90;32.30
578;DHT22;275;48.492;9.214;2024-02-15T00:39:20;13.60;32.30
578;DHT22;275;48.492;9.214;2024-02-15T00:41:46;13.10;34.10
578;DHT22;275;48.492;9.214;2024-02-15T00:44:14;13.00;34.70
578;DHT22;275;48.492;9.214;2024-02-15T00:46:42;13.20;34.50
578;DHT22;275;48.492;9.214;2024-02-15T00:49:09;13.60;33.10
578;DHT22;275;48.492;9.214;2024-02-15T00:51:36;14.00;31.80
578;DHT22;275;48.492;9.214;2024-02-15T00:54:03;14.20;31.10
578;DHT22;275;48.492;9.214;2024-02-15T00:56:31;14.40;30.80
578;DHT22;275;48.492;9.214;2024-02-15T00:58:59;14.60;30.10
578;DHT22;275;48.492;9.214;2024-02-15T01:01:27;14.60;30.00
578;DHT22;275;48.492;9.214;2024-02-15T01:03:55;14.20;31.00
578;DHT22;275;48.492;9.214;2024-02-15T01:06:22;14.30;30.80
578;DHT22;275;48.492;9.214;2024-02-15T01:08:49;14.30;30.80
578;DHT22;275;48.492;9.214;2024-02-15T01:11:15;14.10;30.90
578;DHT22;275;48.492;9.214;2024-02-15T01:13:42;13.90;31.60
578;DHT22;275;48.492;9.214;2024-02-15T01:16:09;13.50;32.80
578;DHT22;275;48.492;9.214;2024-02-15T01:18:36;13.30;33.40
578;DHT22;275;48.492;9.214;2024-02-15T01:21:05;12.80;34.70
578;DHT22;275;48.492;9.214;2024-02-15T01:23:32;13.40;33.30
578;DHT22;275;48.492;9.214;2024-02-15T01:26:00;13.50;32.90
578;DHT22;275;48.492;9.214;2024-02-15T01:28:27;13.70;32.10
578;DHT22;275;48.492;9.214;2024-02-15T01:30:54;13.60;32.30
578;DHT22;275;48.492;9.214;2024-02-15T01:33:21;13.80;31.60
578;DHT22;275;48.492;9.214;2024-02-15T01:35:48;13.80;31.60
578;DHT22;275;48.492;9.214;2024-02-15T01:38:16;13.60;32.20
578;DHT22;275;48.492;9.214;2024-02-15T01:40:43;13.60;32.20
578;DHT22;275;48.492;9.214;2024-02-15T01:43:10;13.40;32.90
578;DHT22;275;48.492;9.214;2024-02-15T01:45:37;13.40;32.70
578;DHT22;275;48.492;9.214;2024-02-15T01:48:05;13.40;32.90
578;DHT22;275;48.492;9.214;2024-02-15T01:50:33;13.30;33.00
578;DHT22;275;48.492;9.214;2024-02-15T01:53:01;12.90;34.20
578;DHT22;275;48.492;9.214;2024-02-15T01:55:32;13.00;34.00
578;DHT22;275;48.492;9.214;2024-02-15T01:58:00;13.00;34.10
578;DHT22;275;48.492;9.214;2024-02-15T02:00:27;13.10;33.50
578;DHT22;275;48.492;9.214;2024-02-15T02:02:54;12.90;34.20
578;DHT22;275;48.492;9.214;2024-02-15T02:05:27;12.80;34.30
578;DHT22;275;48.492;9.214;2024-02-15T02:07:55;13.00;33.80
578;DHT22;275;48.492;9.214;2024-02-15T02:10:24;12.70;34.50
578;DHT22;275;48.492;9.214;2024-02-15T02:12:54;12.10;36.30
578;DHT22;275;48.492;9.214;2024-02-15T02:15:21;12.10;36.40
578;DHT22;275;48.492;9.214;2024-02-15T02:17:49;12.40;35.60
578;DHT22;275;48.492;9.214;2024-02-15T02:20:16;12.80;34.10
578;DHT22;275;48.492;9.214;2024-02-15T02:22:46;13.10;33.20
578;DHT22;275;48.492;9.214;2024-02-15T02:25:15;13.20;32.60
578;DHT22;275;48.492;9.214;2024-02-15T02:27:42;12.70;34.20
578;DHT22;275;48.492;9.214;2024-02-15T02:30:13;12.50;34.40
578;DHT22;275;48.492;9.214;2024-02-15T02:32:42;12.40;34.80
578;DHT22;275;48.492;9.214;2024-02-15T02:35:09;12.50;34.60
578;DHT22;275;48.492;9.214;2024-02-15T02:37:38;12.50;34.60
578;DHT22;275;48.492;9.214;2024-02-15T02:40:06;12.10;35.80
578;DHT22;275;48.492;9.214;2024-02-15T02:42:35;12.20;35.50
578;DHT22;275;48.492;9.214;2024-02-15T02:45:02;12.50;34.40
578;DHT22;275;48.492;9.214;2024-02-15T02:47:30;12.80;33.60
578;DHT22;275;48.492;9.214;2024-02-15T02:49:57;12.60;33.80
578;DHT22;275;48.492;9.214;2024-02-15T02:52:24;12.40;34.40
578;DHT22;275;48.492;9.214;2024-02-15T02:54:51;12.00;35.80
578;DHT22;275;48.492;9.214;2024-02-15T02:57:17;12.30;34.90
578;DHT22;275;48.492;9.214;2024-02-15T02:59:45;12.50;34.20
578;DHT22;275;48.492;9.214;2024-02-15T03:02:12;12.60;33.50
578;DHT22;275;48.492;9.214;2024-02-15T03:04:39;12.80;32.80
578;DHT22;275;48.492;9.214;2024-02-15T03:07:06;12.90;32.40
578;DHT22;275;48.492;9.214;2024-02-15T03:09:33;12.80;32.40
578;DHT22;275;48.492;9.214;2024-02-15T03:12:00;12.50;33.00
578;DHT22;275;48.492;9.214;2024-02-15T03:14:27;12.40;33.30
578;DHT22;275;48.492;9.214;2024-02-15T03:16:57;12.30;33.50
578;DHT22;275;48.492;9.214;2024-02-15T03:19:23;12.20;33.70
578;DHT22;275;48.492;9.214;2024-02-15T03:21:52;12.20;33.60
578;DHT22;275;48.492;9.214;2024-02-15T03:24:18;12.00;33.90
578;DHT22;275;48.492;9.214;2024-02-15T03:26:45;12.20;33.70
578;DHT22;275;48.492;9.214;2024-02-15T03:29:12;12.10;33.90
578;DHT22;275;48.492;9.214;2024-02-15T03:31:39;12.20;33.60
578;DHT22;275;48.492;9.214;2024-02-15T03:34:07;12.30;33.40
578;DHT22;275;48.492;9.214;2024-02-15T03:36:36;12.10;33.90
578;DHT22;275;48.492;9.214;2024-02-15T03:39:03;12.10;33.80
578;DHT22;275;48.492;9.214;2024-02-15T03:41:31;12.10;33.90
578;DHT22;275;48.492;9.214;2024-02-15T03:43:58;11.70;34.70
578;DHT22;275;48.492;9.214;2024-02-15T03:46:25;11.80;34.60
578;DHT22;275;48.492;9.214;2024-02-15T03:48:53;11.80;34.70
578;DHT22;275;48.492;9.214;2024-02-15T03:51:23;11.90;34.10
578;DHT22;275;48.492;9.214;2024-02-15T03:53:50;11.90;34.00
578;DHT22;275;48.492;9.214;2024-02-15T03:56:18;12.00;33.60
578;DHT22;275;48.492;9.214;2024-02-15T03:58:46;11.90;33.60
578;DHT22;275;48.492;9.214;2024-02-15T04:01:13;12.00;33.60
578;DHT22;275;48.492;9.214;2024-02-15T04:03:41;11.90;33.90
578;DHT22;275;48.492;9.214;2024-02-15T04:06:07;12.00;33.40
578;DHT22;275;48.492;9.214;2024-02-15T04:08:38;12.00;33.30
578;DHT22;275;48.492;9.214;2024-02-15T04:11:05;12.10;33.10
578;DHT22;275;48.492;9.214;2024-02-15T04:13:33;12.20;32.90
578;DHT22;275;48.492;9.214;2024-02-15T04:15:59;12.10;33.00
578;DHT22;275;48.492;9.214;2024-02-15T04:18:26;12.10;33.40
578;DHT22;275;48.492;9.214;2024-02-15T04:20:54;12.40;32.60
578;DHT22;275;48.492;9.214;2024-02-15T04:23:21;12.50;32.10
578;DHT22;275;48.492;9.214;2024-02-15T04:25:50;12.50;32.10
578;DHT22;275;48.492;9.214;2024-02-15T04:28:17;12.30;32.60
578;DHT22;275;48.492;9.214;2024-02-15T04:30:44;12.40;32.30
578;DHT22;275;48.492;9.214;2024-02-15T04:33:12;12.10;33.10
578;DHT22;275;48.492;9.214;2024-02-15T04:35:41;12.30;32.80
578;DHT22;275;48.492;9.214;2024-02-15T04:38:07;12.20;32.90
578;DHT22;275;48.492;9.214;2024-02-15T04:40:35;12.20;32.80
578;DHT22;275;48.492;9.214;2024-02-15T04:43:05;12.40;32.10
578;DHT22;275;48.492;9.214;2024-02-15T04:45:32;12.30;32.60
578;DHT22;275;48.492;9.214;2024-02-15T04:47:59;12.30;32.40
578;DHT22;275;48.492;9.214;2024-02-15T04:50:27;12.40;32.20
578;DHT22;275;48.492;9.214;2024-02-15T04:52:54;12.60;31.40
578;DHT22;275;48.492;9.214;2024-02-15T04:55:21;12.30;32.50
578;DHT22;275;48.492;9.214;2024-02-15T04:57:48;12.00;33.30
578;DHT22;275;48.492;9.214;2024-02-15T05:00:22;12.20;32.90
578;DHT22;275;48.492;9.214;2024-02-15T05:02:51;12.30;32.80
578;DHT22;275;48.492;9.214;2024-02-15T05:05:18;12.50;32.10
578;DHT22;275;48.492;9.214;2024-02-15T05:07:45;12.40;32.50
578;DHT22;275;48.492;9.214;2024-02-15T05:10:14;12.50;31.90
578;DHT22;275;48.492;9.214;2024-02-15T05:12:42;12.30;32.50
578;DHT22;275;48.492;9.214;2024-02-15T05:15:09;12.30;32.50
578;DHT22;275;48.492;9.214;2024-02-15T05:17:39;12.40;32.40
578;DHT22;275;48.492;9.214;2024-02-15T05:20:08;12.10;33.10
578;DHT22;275;48.492;9.214;2024-02-15T05:22:37;12.30;32.70
578;DHT22;275;48.492;9.214;2024-02-15T05:25:06;12.50;32.20
578;DHT22;275;48.492;9.214;2024-02-15T05:27:33;12.30;32.50
578;DHT22;275;48.492;9.214;2024-02-15T05:30:02;12.50;32.00
578;DHT22;275;48.492;9.214;2024-02-15T05:32:32;12.60;31.80
578;DHT22;275;48.492;9.214;2024-02-15T05:35:01;12.50;32.10
578;DHT22;275;48.492;9.214;2024-02-15T05:37:29;12.70;31.60
578;DHT22;275;48.492;9.214;2024-02-15T05:39:55;12.50;31.90
578;DHT22;275;48.492;9.214;2024-02-15T05:42:22;12.30;32.30
578;DHT22;275;48.492;9.214;2024-02-15T05:44:49;12.00;33.40
578;DHT22;275;48.492;9.214;2024-02-15T05:47:16;12.00;33.40
578;DHT22;275;48.492;9.214;2024-02-15T05:49:43;12.10;32.90
578;DHT22;275;48.492;9.214;2024-02-15T05:52:13;12.40;32.40
578;DHT22;275;48.492;9.214;2024-02-15T05:54:39;12.50;31.90
578;DHT22;275;48.492;9.214;2024-02-15T05:57:07;12.50;32.00
578;DHT22;275;48.492;9.214;2024-02-15T05:59:34;12.80;31.10
578;DHT22;275;48.492;9.214;2024-02-15T06:02:01;12.50;32.50
578;DHT22;275;48.492;9.214;2024-02-15T06:04:28;12.30;32.80
578;DHT22;275;48.492;9.214;2024-02-15T06:06:56;12.00;33.40
578;DHT22;275;48.492;9.214;2024-02-15T06:09:27;12.10;33.00
578;DHT22;275;48.492;9.214;2024-02-15T06:11:55;12.00;33.20
578;DHT22;275;48.492;9.214;2024-02-15T06:14:23;12.00;33.20
578;DHT22;275;48.492;9.214;2024-02-15T06:16:50;11.90;33.60
578;DHT22;275;48.492;9.214;2024-02-15T06:19:18;12.00;33.40
578;DHT22;275;48.492;9.214;2024-02-15T06:21:44;12.10;33.20
578;DHT22;275;48.492;9.214;2024-02-15T06:24:12;12.30;32.80
578;DHT22;275;48.492;9.214;2024-02-15T06:26:41;12.20;33.00
578;DHT22;275;48.492;9.214;2024-02-15T06:29:08;12.20;33.00
578;DHT22;275;48.492;9.214;2024-02-15T06:31:52;12.10;33.00
578;DHT22;275;48.492;9.214;2024-02-15T06:34:36;12.10;33.00
578;DHT22;275;48.492;9.214;2024-02-15T06:37:36;11.90;33.70
578;DHT22;275;48.492;9.214;2024-02-15T06:40:20;11.70;34.20
578;DHT22;275;48.492;9.214;2024-02-15T06:42:49;11.60;34.20
578;DHT22;275;48.492;9.214;2024-02-15T06:45:16;11.40;34.90
578;DHT22;275;48.492;9.214;2024-02-15T06:47:45;11.20;35.70
578;DHT22;275;48.492;9.214;2024-02-15T06:50:12;11.10;36.10
578;DHT22;275;48.492;9.214;2024-02-15T06:52:39;11.10;36.20
578;DHT22;275;48.492;9.214;2024-02-15T06:55:07;11.10;36.30
578;DHT22;275;48.492;9.214;2024-02-15T06:57:37;11.30;36.00
578;DHT22;275;48.492;9.214;2024-02-15T07:00:09;11.60;35.20
578;DHT22;275;48.492;9.214;2024-02-15T07:02:40;11.60;35.10
578;DHT22;275;48.492;9.214;2024-02-15T07:05:09;11.70;34.90
578;DHT22;275;48.492;9.214;2024-02-15T07:07:36;11.80;34.40
578;DHT22;275;48.492;9.214;2024-02-15T07:10:05;11.80;34.40
578;DHT22;275;48.492;9.214;2024-02-15T07:12:32;12.00;33.70
578;DHT22;275;48.492;9.214;2024-02-15T07:14:58;11.90;33.70
578;DHT22;275;48.492;9.214;2024-02-15T07:17:28;12.10;33.60
578;DHT22;275;48.492;9.214;2024-02-15T07:19:55;12.40;33.00
578;DHT22;275;48.492;9.214;2024-02-15T07:22:22;12.40;32.30
578;DHT22;275;48.492;9.214;2024-02-15T07:24:48;12.60;31.60
578;DHT22;275;48.492;9.214;2024-02-15T07:27:15;12.40;31.60
578;DHT22;275;48.492;9.214;2024-02-15T07:29:44;12.20;32.10
578;DHT22;275;48.492;9.214;2024-02-15T07:32:10;12.30;32.10
578;DHT22;275;48.492;9.214;2024-02-15T07:34:38;12.50;31.50
578;DHT22;275;48.492;9.214;2024-02-15T07:37:07;12.80;31.00
578;DHT22;275;48.492;9.214;2024-02-15T07:39:34;13.10;30.00
578;DHT22;275;48.492;9.214;2024-02-15T07:42:02;13.30;29.80
578;DHT22;275;48.492;9.214;2024-02-15T07:44:30;13.60;29.60
578;DHT22;275;48.492;9.214;2024-02-15T07:46:58;13.60;29.70
578;DHT22;275;48.492;9.214;2024-02-15T07:49:25;13.50;30.20
578;DHT22;275;48.492;9.214;2024-02-15T07:51:54;13.30;30.40
578;DHT22;275;48.492;9.214;2024-02-15T07:54:21;13.20;30.70
578;DHT22;275;48.492;9.214;2024-02-15T07:56:48;13.10;31.00
578;DHT22;275;48.492;9.214;2024-02-15T07:59:15;13.00;31.00
578;DHT22;275;48.492;9.214;2024-02-15T08:01:42;13.10;31.00
578;DHT22;275;48.492;9.214;2024-02-15T08:04:09;13.10;31.10
578;DHT22;275;48.492;9.214;2024-02-15T08:06:35;13.30;30.60
578;DHT22;275;48.492;9.214;2024-02-15T08:09:05;13.50;30.00
578;DHT22;275;48.492;9.214;2024-02-15T08:11:32;13.30;30.20
578;DHT22;275;48.492;9.214;2024-02-15T08:13:59;13.40;30.40
578;DHT22;275;48.492;9.214;2024-02-15T08:16:26;13.40;30.70
578;DHT22;275;48.492;9.214;2024-02-15T08:18:54;13.50;30.20
578;DHT22;275;48.492;9.214;2024-02-15T08:21:25;13.90;30.00
578;DHT22;275;48.492;9.214;2024-02-15T08:23:52;14.20;29.50
578;DHT22;275;48.492;9.214;2024-02-15T08:26:22;14.40;28.90
578;DHT22;275;48.492;9.214;2024-02-15T08:28:49;14.60;28.40
578;DHT22;275;48.492;9.214;2024-02-15T08:31:15;14.90;28.20
578;DHT22;275;48.492;9.214;2024-02-15T08:33:43;15.30;27.50
578;DHT22;275;48.492;9.214;2024-02-15T08:36:11;15.60;27.00
578;DHT22;275;48.492;9.214;2024-02-15T08:38:39;16.00;26.50
578;DHT22;275;48.492;9.214;2024-02-15T08:41:06;16.00;26.30
578;DHT22;275;48.492;9.214;2024-02-15T08:43:35;16.10;26.20
578;DHT22;275;48.492;9.214;2024-02-15T08:46:05;16.10;26.00
578;DHT22;275;48.492;9.214;2024-02-15T08:48:32;16.50;25.40
578;DHT22;275;48.492;9.214;2024-02-15T08:50:59;16.40;25.30
578;DHT22;275;48.492;9.214;2024-02-15T08:53:26;16.10;25.90
578;DHT22;275;48.492;9.214;2024-02-15T08:55:53;16.00;26.40
578;DHT22;275;48.492;9.214;2024-02-15T08:58:20;16.50;25.60
578;DHT22;275;48.492;9.214;2024-02-15T09:00:49;16.80;24.90
578;DHT22;275;48.492;9.214;2024-02-15T09:03:15;16.90;24.80
578;DHT22;275;48.492;9.214;2024-02-15T09:05:44;16.50;25.50
578;DHT22;275;48.492;9.214;2024-02-15T09:08:10;16.60;25.40
578;DHT22;275;48.492;9.214;2024-02-15T09:10:37;16.30;25.80
578;DHT22;275;48.492;9.214;2024-02-15T09:13:04;16.20;25.80
578;DHT22;275;48.492;9.214;2024-02-15T09:15:32;16.20;26.00
578;DHT22;275;48.492;9.214;2024-02-15T09:18:00;15.90;26.40
578;DHT22;275;48.492;9.214;2024-02-15T09:20:27;15.90;26.50
578;DHT22;275;48.492;9.214;2024-02-15T09:22:56;16.00;26.50
578;DHT22;275;48.492;9.214;2024-02-15T09:25:23;15.90;26.60
578;DHT22;275;48.492;9.214;2024-02-15T09:27:51;16.00;27.10
578;DHT22;275;48.492;9.214;2024-02-15T09:30:19;16.00;26.60
578;DHT22;275;48.492;9.214;2024-02-15T09:32:50;16.10;26.50
578;DHT22;275;48.492;9.214;2024-02-15T09:35:18;15.60;27.50
578;DHT22;275;48.492;9.214;2024-02-15T09:37:47;15.50;27.60
578;DHT22;275;48.492;9.214;2024-02-15T09:40:15;15.80;27.30
578;DHT22;275;48.492;9.214;2024-02-15T09:42:43;16.20;26.80
578;DHT22;275;48.492;9.214;2024-02-15T09:45:11;16.10;26.90
578;DHT22;275;48.492;9.214;2024-02-15T09:47:40;15.90;27.30
578;DHT22;275;48.492;9.214;2024-02-15T09:50:08;16.20;26.90
578;DHT22;275;48.492;9.214;2024-02-15T09:52:39;16.60;26.30
578;DHT22;275;48.492;9.214;2024-02-15T09:55:07;16.70;26.00
578;DHT22;275;48.492;9.214;2024-02-15T09:57:38;16.90;25.80
578;DHT22;275;48.492;9.214;2024-02-15T10:00:06;16.90;25.60
578;DHT22;275;48.492;9.214;2024-02-15T10:02:35;16.60;26.20
578;DHT22;275;48.492;9.214;2024-02-15T10:05:02;16.70;26.00
578;DHT22;275;48.492;9.214;2024-02-15T10:07:29;16.40;26.50
578;DHT22;275;48.492;9.214;2024-02-15T10:10:14;16.60;26.30
578;DHT22;275;48.492;9.214;2024-02-15T10:12:42;17.00;26.00
578;DHT22;275;48.492;9.214;2024-02-15T10:15:09;17.00;25.90
578;DHT22;275;48.492;9.214;2024-02-15T10:17:36;16.90;26.20
578;DHT22;275;48.492;9.214;2024-02-15T10:20:04;17.00;26.30
578;DHT22;275;48.492;9.214;2024-02-15T10:22:31;17.10;26.00
578;DHT22;275;48.492;9.214;2024-02-15T10:25:12;17.20;25.90
578;DHT22;275;48.492;9.214;2024-02-15T10:27:40;17.30;25.60
578;DHT22;275;48.492;9.214;2024-02-15T10:30:20;17.30;25.80
578;DHT22;275;48.492;9.214;2024-02-15T10:32:47;17.00;26.30
578;DHT22;275;48.492;9.214;2024-02-15T10:35:21;17.40;25.80
578;DHT22;275;48.492;9.214;2024-02-15T10:37:48;17.70;25.40
578;DHT22;275;48.492;9.214;2024-02-15T10:40:21;17.00;26.40
578;DHT22;275;48.492;9.214;2024-02-15T10:42:51;17.40;25.70
578;DHT22;275;48.492;9.214;2024-02-15T10:45:18;17.50;25.40
578;DHT22;275;48.492;9.214;2024-02-15T10:47:45;17.60;25.50
578;DHT22;275;48.492;9.214;2024-02-15T10:50:13;17.80;25.10
578;DHT22;275;48.492;9.214;2024-02-15T10:52:47;17.80;24.90
578;DHT22;275;48.492;9.214;2024-02-15T10:55:18;18.00;24.70
578;DHT22;275;48.492;9.214;2024-02-15T10:57:51;18.30;24.40
578;DHT22;275;48.492;9.214;2024-02-15T11:00:21;18.40;24.10
578;DHT22;275;48.492;9.214;2024-02-15T11:03:00;18.20;24.30
578;DHT22;275;48.492;9.214;2024-02-15T11:05:32;18.40;23.80
578;DHT22;275;48.492;9.214;2024-02-15T11:08:03;18.50;23.70
578;DHT22;275;48.492;9.214;2024-02-15T11:10:33;18.70;23.40
578;DHT22;275;48.492;9.214;2024-02-15T11:13:02;18.30;23.30
578;DHT22;275;48.492;9.214;2024-02-15T11:15:43;18.80;22.80
578;DHT22;275;48.492;9.214;2024-02-15T11:21:54;20.30;20.50
578;DHT22;275;48.492;9.214;2024-02-15T11:24:25;20.30;20.60
578;DHT22;275;48.492;9.214;2024-02-15T11:26:57;20.00;21.60
578;DHT22;275;48.492;9.214;2024-02-15T11:29:51;19.80;21.40
578;DHT22;275;48.492;9.214;2024-02-15T11:32:38;19.60;21.60
578;DHT22;275;48.492;9.214;2024-02-15T11:35:10;19.50;22.10
578;DHT22;275;48.492;9.214;2024-02-15T11:38:06;18.80;23.00
578;DHT22;275;48.492;9.214;2024-02-15T11:41:00;18.70;23.60
578;DHT22;275;48.492;9.214;2024-02-15T11:43:46;18.30;23.50
578;DHT22;275;48.492;9.214;2024-02-15T11:46:17;19.10;22.00
578;DHT22;275;48.492;9.214;2024-02-15T11:48:44;19.40;21.70
578;DHT22;275;48.492;9.214;2024-02-15T11:51:31;19.60;20.80
578;DHT22;275;48.492;9.214;2024-02-15T11:54:03;19.90;20.50
578;DHT22;275;48.492;9.214;2024-02-15T11:56:48;20.20;20.20
578;DHT22;275;48.492;9.214;2024-02-15T11:59:19;20.20;20.10
578;DHT22;275;48.492;9.214;2024-02-15T12:01:58;19.90;20.40
578;DHT22;275;48.492;9.214;2024-02-15T12:04:43;20.20;20.00
578;DHT22;275;48.492;9.214;2024-02-15T12:07:28;20.70;19.60
578;DHT22;275;48.492;9.214;2024-02-15T12:10:16;21.00;19.40
578;DHT22;275;48.492;9.214;2024-02-15T12:13:00;21.40;18.90
578;DHT22;275;48.492;9.214;2024-02-15T12:15:57;21.70;18.20
578;DHT22;275;48.492;9.214;2024-02-15T12:18:43;21.70;18.40
578;DHT22;275;48.492;9.214;2024-02-15T12:21:13;21.30;18.80
578;DHT22;275;48.492;9.214;2024-02-15T12:23:42;21.50;18.60
578;DHT22;275;48.492;9.214;2024-02-15T12:26:09;21.40;18.70
578;DHT22;275;48.492;9.214;2024-02-15T12:28:36;20.80;18.70
578;DHT22;275;48.492;9.214;2024-02-15T12:31:04;20.20;19.70
578;DHT22;275;48.492;9.214;2024-02-15T12:33:33;20.40;19.90
578;DHT22;275;48.492;9.214;2024-02-15T12:36:08;20.50;19.80
578;DHT22;275;48.492;9.214;2024-02-15T12:38:35;20.40;20.10
578;DHT22;275;48.492;9.214;2024-02-15T12:41:04;20.40;20.20
578;DHT22;275;48.492;9.214;2024-02-15T12:43:31;19.70;21.50
578;DHT22;275;48.492;9.214;2024-02-15T12:45:58;20.00;21.50
578;DHT22;275;48.492;9.214;2024-02-15T12:48:24;20.60;19.90
578;DHT22;275;48.492;9.214;2024-02-15T12:50:52;20.80;19.70
578;DHT22;275;48.492;9.214;2024-02-15T12:53:24;21.60;18.90
578;DHT22;275;48.492;9.214;2024-02-15T12:55:55;22.10;18.20
578;DHT22;275;48.492;9.214;2024-02-15T12:58:22;22.00;18.30
578;DHT22;275;48.492;9.214;2024-02-15T13:00:54;21.50;18.80
578;DHT22;275;48.492;9.214;2024-02-15T13:03:24;21.70;18.80
578;DHT22;275;48.492;9.214;2024-02-15T13:05:51;22.70;17.30
578;DHT22;275;48.492;9.214;2024-02-15T13:08:17;22.60;17.60
578;DHT22;275;48.492;9.214;2024-02-15T13:10:46;22.50;17.60
578;DHT22;275;48.492;9.214;2024-02-15T13:13:14;23.00;17.30
578;DHT22;275;48.492;9.214;2024-02-15T13:15:41;23.60;16.70
578;DHT22;275;48.492;9.214;2024-02-15T13:18:09;23.00;17.10
578;DHT22;275;48.492;9.214;2024-02-15T13:20:37;22.70;17.30
578;DHT22;275;48.492;9.214;2024-02-15T13:23:06;23.20;16.90
578;DHT22;275;48.492;9.214;2024-02-15T13:25:35;22.60;17.60
578;DHT22;275;48.492;9.214;2024-02-15T13:28:05;23.70;16.40
578;DHT22;275;48.492;9.214;2024-02-15T13:30:31;23.70;16.10
578;DHT22;275;48.492;9.214;2024-02-15T13:32:59;23.60;16.20
578;DHT22;275;48.492;9.214;2024-02-15T13:35:26;23.90;15.90
578;DHT22;275;48.492;9.214;2024-02-15T13:37:54;22.80;17.20
578;DHT22;275;48.492;9.214;2024-02-15T13:40:23;22.10;18.10
578;DHT22;275;48.492;9.214;2024-02-15T13:42:54;22.30;18.10
578;DHT22;275;48.492;9.214;2024-02-15T13:45:29;21.60;18.80
578;DHT22;275;48.492;9.214;2024-02-15T13:47:58;21.00;19.80
578;DHT22;275;48.492;9.214;2024-02-15T13:50:27;21.50;19.20
578;DHT22;275;48.492;9.214;2024-02-15T13:52:54;21.70;19.20
578;DHT22;275;48.492;9.214;2024-02-15T13:55:21;21.80;18.80
578;DHT22;275;48.492;9.214;2024-02-15T13:57:48;22.20;18.40
578;DHT22;275;48.492;9.214;2024-02-15T14:00:15;22.40;18.30
578;DHT22;275;48.492;9.214;2024-02-15T14:02:49;22.60;17.80
578;DHT22;275;48.492;9.214;2024-02-15T14:05:16;22.30;18.20
578;DHT22;275;48.492;9.214;2024-02-15T14:07:46;22.40;18.00
578;DHT22;275;48.492;9.214;2024-02-15T14:10:14;22.50;18.20
578;DHT22;275;48.492;9.214;2024-02-15T14:12:40;21.30;19.40
578;DHT22;275;48.492;9.214;2024-02-15T14:15:08;20.80;20.10
578;DHT22;275;48.492;9.214;2024-02-15T14:17:35;21.20;19.90
578;DHT22;275;48.492;9.214;2024-02-15T14:20:04;20.80;20.30
578;DHT22;275;48.492;9.214;2024-02-15T14:22:34;20.20;21.10
578;DHT22;275;48.492;9.214;2024-02-15T14:25:01;19.60;21.80
578;DHT22;275;48.492;9.214;2024-02-15T14:27:29;19.70;22.10
578;DHT22;275;48.492;9.214;2024-02-15T14:29:57;20.30;21.40
578;DHT22;275;48.492;9.214;2024-02-15T14:32:42;20.40;21.10
578;DHT22;275;48.492;9.214;2024-02-15T14:35:30;20.30;21.30
578;DHT22;275;48.492;9.214;2024-02-15T14:38:00;20.50;21.10
578;DHT22;275;48.492;9.214;2024-02-15T14:40:31;20.60;20.90
578;DHT22;275;48.492;9.214;2024-02-15T14:42:58;21.00;20.40
578;DHT22;275;48.492;9.214;2024-02-15T14:45:25;20.20;21.50
578;DHT22;275;48.492;9.214;2024-02-15T14:47:52;19.80;22.20
578;DHT22;275;48.492;9.214;2024-02-15T14:50:19;20.30;21.60
578;DHT22;275;48.492;9.214;2024-02-15T14:52:47;20.10;21.80
578;DHT22;275;48.492;9.214;2024-02-15T14:55:14;20.40;21.30
578;DHT22;275;48.492;9.214;2024-02-15T14:57:42;20.90;20.70
578;DHT22;275;48.492;9.214;2024-02-15T15:00:10;21.40;19.90
578;DHT22;275;48.492;9.214;2024-02-15T15:02:38;21.60;19.60
578;DHT22;275;48.492;9.214;2024-02-15T15:05:05;21.80;19.40
578;DHT22;275;48.492;9.214;2024-02-15T15:07:51;21.60;19.70
578;DHT22;275;48.492;9.214;2024-02-15T15:10:38;21.00;20.40
578;DHT22;275;48.492;9.214;2024-02-15T15:13:22;21.20;20.30
578;DHT22;275;48.492;9.214;2024-02-15T15:15:49;21.30;20.10
578;DHT22;275;48.492;9.214;2024-02-15T15:18:16;21.40;20.10
578;DHT22;275;48.492;9.214;2024-02-15T15:20:43;21.30;20.10
578;DHT22;275;48.492;9.214;2024-02-15T15:23:11;21.50;19.70
578;DHT22;275;48.492;9.214;2024-02-15T15:25:39;21.30;19.90
578;DHT22;275;48.492;9.214;2024-02-15T15:28:06;21.20;20.10
578;DHT22;275;48.492;9.214;2024-02-15T15:30:34;20.70;20.80
578;DHT22;275;48.492;9.214;2024-02-15T15:33:01;20.10;21.70
578;DHT22;275;48.492;9.214;2024-02-15T15:35:28;19.80;22.20
578;DHT22;275;48.492;9.214;2024-02-15T15:37:56;20.10;21.70
578;DHT22;275;48.492;9.214;2024-02-15T15:40:24;20.40;21.40
578;DHT22;275;48.492;9.214;2024-02-15T15:42:51;20.60;21.00
578;DHT22;275;48.492;9.214;2024-02-15T15:45:20;20.80;20.90
578;DHT22;275;48.492;9.214;2024-02-15T15:47:48;20.80;20.80
578;DHT22;275;48.492;9.214;2024-02-15T15:50:15;20.70;20.90
578;DHT22;275;48.492;9.214;2024-02-15T15:52:42;20.30;21.30
578;DHT22;275;48.492;9.214;2024-02-15T15:55:10;20.20;21.40
578;DHT22;275;48.492;9.214;2024-02-15T15:57:40;20.30;21.20
578;DHT22;275;48.492;9.214;2024-02-15T16:00:08;20.30;20.90
578;DHT22;275;48.492;9.214;2024-02-15T16:02:41;19.90;21.10
578;DHT22;275;48.492;9.214;2024-02-15T16:05:09;19.80;20.50
578;DHT22;275;48.492;9.214;2024-02-15T16:07:37;19.80;20.30
578;DHT22;275;48.492;9.214;2024-02-15T16:10:07;19.40;20.10
578;DHT22;275;48.492;9.214;2024-02-15T16:12:36;19.10;19.50
578;DHT22;275;48.492;9.214;2024-02-15T16:15:06;18.90;19.90
578;DHT22;275;48.492;9.214;2024-02-15T16:17:34;19.00;19.60
578;DHT22;275;48.492;9.214;2024-02-15T16:20:01;18.70;20.00
578;DHT22;275;48.492;9.214;2024-02-15T16:22:30;18.80;19.70
578;DHT22;275;48.492;9.214;2024-02-15T16:24:59;18.90;19.80
578;DHT22;275;48.492;9.214;2024-02-15T16:27:31;19.10;19.70
578;DHT22;275;48.492;9.214;2024-02-15T16:29:58;18.90;19.80
578;DHT22;275;48.492;9.214;2024-02-15T16:32:26;18.80;20.10
578;DHT22;275;48.492;9.214;2024-02-15T16:34:54;18.30;20.60
578;DHT22;275;48.492;9.214;2024-02-15T16:37:23;18.40;20.70
578;DHT22;275;48.492;9.214;2024-02-15T16:39:50;18.00;21.30
578;DHT22;275;48.492;9.214;2024-02-15T16:42:17;17.70;21.70
578;DHT22;275;48.492;9.214;2024-02-15T16:44:44;17.70;21.60
578;DHT22;275;48.492;9.214;2024-02-15T16:47:12;17.70;21.80
578;DHT22;275;48.492;9.214;2024-02-15T16:49:43;17.60;22.10